Time;durP1;ratioP1;P1;durP2;ratioP2;P2;SDS_P1;SDS_P2;PMS_P1;PMS_P2;Temp;Humidity;BMP_temperature;BMP_pressure;BME280_temperature;BME280_humidity;BME280_pressure;Samples;Min_cycle;Max_cycle;Signal;HPM_P1;HPM_P2
2022/11/21 00:01:57;;;;;;;0.67;0.67;;;;;;;5.65;92.33;94853.19;5089574;28;20234;-79
2022/11/21 00:04:24;;;;;;;0.80;0.70;;;;;;;5.64;92.23;94856.69;5080622;28;20196;-79
2022/11/21 00:06:50;;;;;;;0.60;0.60;;;;;;;5.59;91.45;94858.13;5088721;28;20643;-80
2022/11/21 00:09:17;;;;;;;0.80;0.80;;;;;;;5.67;91.25;94853.81;5089316;28;20193;-80
2022/11/21 00:11:43;;;;;;;0.63;0.63;;;;;;;5.64;90.90;94859.25;5089228;28;20192;-79
2022/11/21 00:14:10;;;;;;;0.60;0.60;;;;;;;5.78;90.35;94863.66;5089647;28;20199;-79
2022/11/21 00:16:37;;;;;;;0.70;0.70;;;;;;;5.81;90.44;94857.44;5089682;28;20222;-80
2022/11/21 00:19:04;;;;;;;0.60;0.60;;;;;;;5.79;90.05;94855.03;5089256;28;20243;-79
2022/11/21 00:21:30;;;;;;;0.60;0.60;;;;;;;5.81;89.85;94868.44;5088760;28;20224;-79
2022/11/21 00:23:57;;;;;;;0.60;0.60;;;;;;;5.71;89.19;94869.59;5076723;28;20283;-80
2022/11/21 00:26:23;;;;;;;0.60;0.60;;;;;;;5.72;89.34;94856.69;5090117;28;20223;-80
2022/11/21 00:28:50;;;;;;;0.60;0.60;;;;;;;5.78;89.49;94873.09;5089294;28;20215;-80
2022/11/21 00:31:21;;;;;;;0.60;0.60;;;;;;;5.83;89.46;94863.97;5089158;28;20192;-79
2022/11/21 00:33:49;;;;;;;0.60;0.60;;;;;;;5.91;89.34;94862.41;5088970;28;20185;-79
2022/11/21 00:36:15;;;;;;;0.60;0.60;;;;;;;5.93;88.24;94868.94;5089053;28;20204;-79
2022/11/21 00:38:41;;;;;;;1.17;0.70;;;;;;;5.94;88.46;94860.31;5088450;28;20219;-79
2022/11/21 00:41:08;;;;;;;0.67;0.67;;;;;;;5.96;88.58;94860.94;5088872;28;20196;-80
2022/11/21 00:43:34;;;;;;;0.60;0.60;;;;;;;6.08;88.26;94863.91;5088602;28;20196;-80
2022/11/21 00:46:01;;;;;;;0.60;0.60;;;;;;;6.15;87.57;94854.63;5089446;28;20192;-79
2022/11/21 00:48:28;;;;;;;0.67;0.67;;;;;;;6.21;87.25;94853.94;5088920;28;20212;-80
2022/11/21 00:50:56;;;;;;;0.70;0.70;;;;;;;6.20;86.78;94845.47;5088934;28;20192;-80
2022/11/21 00:53:22;;;;;;;0.67;0.67;;;;;;;6.22;86.41;94837.66;5079542;28;20561;-81
2022/11/21 00:55:49;;;;;;;0.70;0.70;;;;;;;6.24;86.47;94844.19;5070922;28;20250;-80
2022/11/21 00:58:15;;;;;;;0.93;0.67;;;;;;;6.29;85.94;94842.91;5089071;28;20231;-80
2022/11/21 01:00:42;;;;;;;0.70;0.70;;;;;;;6.26;86.35;94838.91;5089406;28;20291;-80
2022/11/21 01:03:08;;;;;;;0.70;0.70;;;;;;;6.19;85.63;94835.41;5088704;28;20216;-80
2022/11/21 01:05:35;;;;;;;1.43;0.80;;;;;;;6.19;86.17;94835.41;5088819;28;20193;-80
2022/11/21 01:08:03;;;;;;;0.70;0.70;;;;;;;6.27;85.98;94834.59;5089064;28;20212;-80
2022/11/21 01:10:29;;;;;;;1.43;0.70;;;;;;;6.30;85.72;94836.81;5089206;28;20196;-80
2022/11/21 01:12:55;;;;;;;0.77;0.77;;;;;;;6.26;85.76;94840.66;5089051;28;20188;-80
2022/11/21 01:15:22;;;;;;;0.80;0.80;;;;;;;6.31;87.03;94838.41;5088811;28;20204;-79
2022/11/21 01:17:48;;;;;;;1.30;0.80;;;;;;;6.28;87.65;94836.19;5086272;28;20236;-79
2022/11/21 01:20:15;;;;;;;1.10;0.90;;;;;;;6.31;87.45;94846.09;5079822;28;20203;-80
2022/11/21 01:22:41;;;;;;;0.80;0.80;;;;;;;6.32;88.00;94842.56;5080283;28;20221;-79
2022/11/21 01:25:09;;;;;;;0.80;0.80;;;;;;;6.34;88.05;94838.06;5079510;28;20189;-79
2022/11/21 01:27:39;;;;;;;0.70;0.70;;;;;;;6.33;87.55;94821.16;5079955;28;20235;-79
2022/11/21 01:30:07;;;;;;;0.70;0.70;;;;;;;6.31;87.94;94820.53;5085628;28;20192;-79
2022/11/21 01:32:33;;;;;;;1.10;0.80;;;;;;;6.23;87.96;94824.69;5080107;28;20572;-80
2022/11/21 01:35:00;;;;;;;0.80;0.80;;;;;;;6.27;88.14;94827.72;5084562;28;20276;-80
2022/11/21 01:37:26;;;;;;;0.70;0.70;;;;;;;6.21;88.39;94816.41;5074767;28;20220;-79
2022/11/21 01:39:54;;;;;;;0.70;0.70;;;;;;;6.19;88.08;94831.09;5081137;28;20201;-80
2022/11/21 01:42:21;;;;;;;0.80;0.80;;;;;;;6.24;89.14;94820.38;5086006;28;20910;-79
2022/11/21 01:44:50;;;;;;;1.90;0.80;;;;;;;6.19;88.36;94820.09;5089141;28;20200;-80
2022/11/21 01:47:17;;;;;;;0.70;0.70;;;;;;;6.23;88.30;94811.91;5085806;28;20219;-79
2022/11/21 01:49:45;;;;;;;1.27;0.70;;;;;;;6.23;88.09;94836.69;5083933;28;20201;-79
2022/11/21 01:52:17;;;;;;;0.80;0.80;;;;;;;6.23;88.37;94834.13;5091586;28;20192;-79
2022/11/21 01:54:49;;;;;;;0.90;0.90;;;;;;;6.14;89.02;94812.94;5090136;28;20216;-80
2022/11/21 01:57:19;;;;;;;0.80;0.80;;;;;;;6.19;89.20;94831.09;5091149;28;20230;-80
2022/11/21 01:59:52;;;;;;;1.27;0.90;;;;;;;6.28;88.10;94819.09;5083185;28;20582;-78
2022/11/21 02:02:23;;;;;;;0.80;0.80;;;;;;;6.34;87.68;94813.31;5088623;28;20204;-80
2022/11/21 02:04:51;;;;;;;0.87;0.87;;;;;;;6.35;87.34;94806.44;5090216;28;20550;-79
2022/11/21 02:07:22;;;;;;;0.80;0.80;;;;;;;6.26;87.58;94794.66;5087881;28;20603;-79
2022/11/21 02:09:52;;;;;;;0.80;0.80;;;;;;;6.23;87.10;94783.81;5085891;28;20661;-79
2022/11/21 02:12:25;;;;;;;1.17;0.90;;;;;;;6.34;86.93;94786.94;5091176;28;20598;-79
2022/11/21 02:14:55;;;;;;;1.00;0.90;;;;;;;6.23;86.77;94780.47;5077983;28;20204;-79
2022/11/21 02:17:21;;;;;;;2.20;0.90;;;;;;;6.29;87.06;94781.53;5077868;28;20212;-80
2022/11/21 02:19:53;;;;;;;2.17;1.00;;;;;;;6.36;86.12;94780.69;5088393;28;20218;-80
2022/11/21 02:22:27;;;;;;;0.80;0.80;;;;;;;6.38;85.65;94777.97;5090865;28;20204;-79
2022/11/21 02:25:02;;;;;;;0.70;0.70;;;;;;;6.33;85.82;94777.69;5077215;28;20199;-80
2022/11/21 02:27:29;;;;;;;1.00;0.90;;;;;;;6.35;85.76;94773.22;5086174;28;20208;-79
2022/11/21 02:29:55;;;;;;;2.07;1.00;;;;;;;6.40;85.42;94776.81;5090916;28;20196;-81
2022/11/21 02:32:22;;;;;;;1.23;0.97;;;;;;;6.35;85.29;94773.22;5081875;28;20188;-79
2022/11/21 02:34:49;;;;;;;0.60;0.60;;;;;;;6.38;85.38;94757.50;5090729;28;20188;-78
2022/11/21 02:37:16;;;;;;;2.13;1.10;;;;;;;6.36;85.15;94762.78;5090339;28;20212;-79
2022/11/21 02:39:45;;;;;;;0.80;0.80;;;;;;;6.40;85.25;94769.16;5090717;28;20188;-79
2022/11/21 02:42:20;;;;;;;1.13;0.90;;;;;;;6.35;84.48;94761.19;5080817;28;20232;-80
2022/11/21 02:44:51;;;;;;;0.97;0.80;;;;;;;6.37;85.02;94745.69;5087730;28;20188;-79
2022/11/21 02:47:19;;;;;;;2.17;1.00;;;;;;;6.46;84.04;94760.00;5087029;28;20227;-80
2022/11/21 02:49:53;;;;;;;0.90;0.90;;;;;;;6.39;84.04;94772.69;5089452;28;20196;-79
2022/11/21 02:52:20;;;;;;;1.20;1.00;;;;;;;6.36;84.22;94767.91;5089864;28;20199;-80
2022/11/21 02:54:46;;;;;;;0.90;0.80;;;;;;;6.50;83.46;94762.06;5083053;28;20218;-80
2022/11/21 02:57:14;;;;;;;1.10;0.97;;;;;;;6.44;82.98;94757.63;5089983;28;20703;-79
2022/11/21 02:59:40;;;;;;;1.97;0.90;;;;;;;6.46;83.34;94749.78;5089485;28;20196;-79
2022/11/21 03:02:07;;;;;;;1.97;0.87;;;;;;;6.48;82.92;94752.97;5080185;28;20219;-80
2022/11/21 03:04:33;;;;;;;0.80;0.73;;;;;;;6.54;82.41;94757.41;5086285;28;20203;-80
2022/11/21 03:07:00;;;;;;;2.10;1.00;;;;;;;6.55;82.49;94757.22;5089733;28;20199;-79
2022/11/21 03:09:26;;;;;;;1.67;0.83;;;;;;;6.61;82.19;94752.38;5090169;28;20602;-79
2022/11/21 03:11:53;;;;;;;1.17;0.90;;;;;;;6.67;82.39;94754.25;5074935;28;20203;-80
2022/11/21 03:14:21;;;;;;;0.90;0.77;;;;;;;6.68;81.25;94741.31;5082673;28;20193;-80
2022/11/21 03:16:47;;;;;;;1.00;0.80;;;;;;;6.63;80.96;94737.66;5088969;28;20192;-80
2022/11/21 03:19:13;;;;;;;2.27;0.90;;;;;;;6.52;80.95;94731.22;5089648;28;20219;-80
2022/11/21 03:21:40;;;;;;;0.87;0.77;;;;;;;6.51;80.95;94732.97;5089733;28;20196;-79
2022/11/21 03:24:08;;;;;;;4.60;1.13;;;;;;;6.49;80.88;94727.22;5089585;28;20215;-80
2022/11/21 03:26:34;;;;;;;1.70;0.90;;;;;;;6.48;80.72;94717.19;5089735;28;20195;-79
2022/11/21 03:29:01;;;;;;;1.43;0.80;;;;;;;6.43;80.78;94716.88;5084164;28;20215;-79
2022/11/21 03:31:28;;;;;;;0.70;0.70;;;;;;;6.36;80.90;94710.84;5089403;28;20204;-80
2022/11/21 03:33:55;;;;;;;1.10;0.80;;;;;;;6.42;80.86;94705.88;5089222;28;20219;-79
2022/11/21 03:36:21;;;;;;;1.23;0.80;;;;;;;6.43;80.35;94709.22;5090017;28;20207;-79
2022/11/21 03:38:48;;;;;;;1.73;0.80;;;;;;;6.40;80.74;94707.78;5089024;28;20212;-79
2022/11/21 03:41:29;;;;;;;1.13;0.80;;;;;;;6.43;80.56;94716.88;5088923;28;20674;-80
2022/11/21 03:43:56;;;;;;;1.17;1.00;;;;;;;6.35;80.41;94712.63;5090380;28;20214;-79
2022/11/21 03:46:23;;;;;;;1.80;1.20;;;;;;;6.38;80.64;94707.16;5091504;28;20192;-80
2022/11/21 03:48:50;;;;;;;0.90;0.90;;;;;;;6.36;80.57;94709.09;5089524;28;20290;-78
2022/11/21 03:51:17;;;;;;;0.90;0.80;;;;;;;6.37;80.39;94700.47;5089440;28;20230;-80
2022/11/21 03:53:44;;;;;;;2.33;0.77;;;;;;;6.41;80.30;94701.72;5089617;28;20196;-80
2022/11/21 03:56:10;;;;;;;0.87;0.70;;;;;;;6.35;80.40;94702.41;5089185;28;20196;-79
2022/11/21 03:58:37;;;;;;;1.67;0.97;;;;;;;6.39;79.93;94701.09;5089396;28;20223;-80
2022/11/21 04:01:04;;;;;;;1.00;0.83;;;;;;;6.31;80.46;94701.19;5089849;28;20613;-80
2022/11/21 04:03:30;;;;;;;1.47;0.80;;;;;;;6.35;80.71;94704.19;5089075;28;20604;-80
2022/11/21 04:05:58;;;;;;;0.77;0.73;;;;;;;6.33;80.64;94698.44;5089254;28;20230;-79
2022/11/21 04:08:25;;;;;;;1.83;0.90;;;;;;;6.34;80.35;94698.28;5079108;28;20221;-80
2022/11/21 04:10:52;;;;;;;1.37;0.80;;;;;;;6.29;80.54;94695.44;5089683;28;20200;-79
2022/11/21 04:13:19;;;;;;;1.43;0.80;;;;;;;6.25;80.60;94691.63;5088895;28;20483;-82
2022/11/21 04:15:46;;;;;;;1.40;0.90;;;;;;;6.27;80.66;94687.16;5089469;28;20670;-80
2022/11/21 04:18:13;;;;;;;0.67;0.67;;;;;;;6.29;80.64;94687.78;5083685;28;20250;-80
2022/11/21 04:20:40;;;;;;;2.87;0.90;;;;;;;6.31;80.34;94690.16;5089316;28;20192;-78
2022/11/21 04:23:08;;;;;;;1.23;0.87;;;;;;;6.22;81.04;94686.84;5089015;28;21025;-80
2022/11/21 04:25:34;;;;;;;1.77;1.27;;;;;;;6.27;80.76;94687.16;5089129;28;20203;-80
2022/11/21 04:28:02;;;;;;;2.17;1.00;;;;;;;6.31;80.66;94690.94;5083509;28;20212;-79
2022/11/21 04:30:29;;;;;;;3.80;1.00;;;;;;;6.42;80.83;94690.53;5089030;28;20200;-80
2022/11/21 04:32:56;;;;;;;0.90;0.83;;;;;;;6.36;80.94;94692.97;5088640;28;20196;-80
2022/11/21 04:35:24;;;;;;;1.60;0.83;;;;;;;6.42;81.96;94693.09;5088219;28;20196;-80
2022/11/21 04:37:51;;;;;;;3.10;0.90;;;;;;;6.36;82.12;94692.97;5088463;28;20627;-79
2022/11/21 04:40:19;;;;;;;1.40;0.80;;;;;;;6.29;83.22;94692.88;5088745;28;20196;-78
2022/11/21 04:42:47;;;;;;;1.60;1.07;;;;;;;6.30;83.26;94694.47;5088519;28;20227;-80
2022/11/21 04:45:15;;;;;;;1.73;1.00;;;;;;;6.39;83.80;94690.06;5088694;28;20223;-79
2022/11/21 04:47:43;;;;;;;2.50;1.10;;;;;;;6.50;83.91;94675.13;5087995;28;20294;-80
2022/11/21 04:50:11;;;;;;;0.77;0.77;;;;;;;6.51;84.00;94681.84;5088726;28;20590;-79
2022/11/21 04:52:37;;;;;;;3.30;1.07;;;;;;;6.37;84.33;94672.34;5089444;28;20192;-78
2022/11/21 04:55:05;;;;;;;2.80;1.17;;;;;;;6.34;85.73;94680.38;5091351;28;20230;-80
2022/11/21 04:57:33;;;;;;;1.13;0.90;;;;;;;6.31;86.65;94670.50;5092184;28;20212;-78
2022/11/21 05:00:00;;;;;;;2.07;0.90;;;;;;;6.30;87.18;94657.91;5092313;28;20574;-79
2022/11/21 05:02:26;;;;;;;1.07;0.80;;;;;;;6.42;86.82;94661.59;5091744;28;20698;-79
2022/11/21 05:04:53;;;;;;;2.70;0.83;;;;;;;6.29;86.83;94654.53;5077785;28;20215;-79
2022/11/21 05:07:19;;;;;;;0.83;0.80;;;;;;;6.15;87.82;94648.44;5081023;28;20215;-79
2022/11/21 05:09:45;;;;;;;1.73;0.83;;;;;;;6.28;87.41;94645.28;5092526;28;20209;-80
2022/11/21 05:15:09;;;;;;;1.27;0.80;;;;;;;6.16;87.83;94639.78;5009479;28;20237;-79
2022/11/21 05:17:36;;;;;;;1.00;0.90;;;;;;;6.22;87.70;94648.53;5071880;28;20224;-79
2022/11/21 05:20:03;;;;;;;2.23;0.70;;;;;;;6.23;87.90;94642.44;5090942;28;20203;-80
2022/11/21 05:22:30;;;;;;;1.43;0.90;;;;;;;6.30;87.53;94643.34;5092272;28;20203;-80
2022/11/21 05:24:56;;;;;;;1.40;0.90;;;;;;;6.27;87.50;94635.22;5091145;28;20196;-80
2022/11/21 05:27:23;;;;;;;1.53;0.80;;;;;;;6.23;88.18;94643.25;5086220;28;20219;-78
2022/11/21 05:29:49;;;;;;;1.70;1.30;;;;;;;6.31;87.89;94639.81;5072293;28;20213;-79
2022/11/21 05:32:17;;;;;;;2.60;0.80;;;;;;;6.33;87.63;94637.09;5082630;28;20204;-79
2022/11/21 05:34:43;;;;;;;0.73;0.73;;;;;;;6.30;87.07;94638.25;5061835;28;20197;-80
2022/11/21 05:37:10;;;;;;;0.93;0.70;;;;;;;6.15;87.51;94637.41;5074804;28;20197;-80
2022/11/21 05:39:36;;;;;;;1.13;0.60;;;;;;;6.16;87.72;94631.31;5084656;28;20199;-80
2022/11/21 05:42:03;;;;;;;0.87;0.80;;;;;;;6.06;88.29;94633.31;5086015;28;20192;-81
2022/11/21 05:44:29;;;;;;;1.23;0.80;;;;;;;6.11;88.38;94633.59;5083377;28;20224;-79
2022/11/21 05:46:55;;;;;;;1.93;0.83;;;;;;;6.10;88.37;94630.25;5079531;28;20205;-79
2022/11/21 05:49:23;;;;;;;1.47;0.87;;;;;;;6.00;88.51;94634.00;5078084;28;20197;-79
2022/11/21 05:51:49;;;;;;;0.93;0.70;;;;;;;5.97;89.68;94639.44;5086844;28;20191;-79
2022/11/21 05:54:16;;;;;;;0.77;0.77;;;;;;;6.02;89.82;94644.84;5078888;28;20678;-78
2022/11/21 05:56:43;;;;;;;0.90;0.90;;;;;;;6.07;89.33;94645.13;5077917;28;20193;-80
2022/11/21 05:59:11;;;;;;;1.40;0.90;;;;;;;6.14;89.28;94651.16;5072296;28;20221;-78
2022/11/21 06:04:23;;;;;;;1.63;0.70;;;;;;;6.11;89.32;94652.28;5078550;28;20212;-79
2022/11/21 06:06:49;;;;;;;2.90;1.03;;;;;;;6.12;89.55;94658.19;5084382;28;20279;-80
2022/11/21 06:09:16;;;;;;;0.80;0.80;;;;;;;6.14;89.79;94658.81;5078813;28;20231;-79
2022/11/21 06:11:44;;;;;;;1.07;0.90;;;;;;;6.17;90.04;94650.78;5080393;28;20237;-79
2022/11/21 06:14:10;;;;;;;2.20;0.97;;;;;;;6.19;90.91;94651.41;5089266;28;20192;-80
2022/11/21 06:16:37;;;;;;;2.17;1.00;;;;;;;6.23;92.32;94663.69;5089693;28;20200;-79
2022/11/21 06:19:03;;;;;;;3.60;1.30;;;;;;;6.32;90.21;94661.88;5079459;28;20224;-79
2022/11/21 06:21:33;;;;;;;2.60;1.87;;;;;;;6.40;90.54;94653.31;5073508;28;20196;-79
2022/11/21 06:23:59;;;;;;;1.83;1.60;;;;;;;6.42;92.49;94659.06;5080602;28;20223;-81
2022/11/21 06:26:27;;;;;;;2.30;1.30;;;;;;;6.36;89.78;94662.28;5080348;28;20196;-80
2022/11/21 06:28:54;;;;;;;2.27;1.33;;;;;;;6.32;89.94;94658.53;5083902;28;20734;-79
2022/11/21 06:31:22;;;;;;;1.67;0.90;;;;;;;6.32;89.38;94671.28;5087529;28;20219;-81
2022/11/21 06:33:52;;;;;;;1.03;0.93;;;;;;;6.33;89.82;94667.78;5070091;28;20216;-79
2022/11/21 06:36:19;;;;;;;2.67;1.10;;;;;;;6.39;89.26;94662.75;5073139;28;20201;-80
2022/11/21 06:38:47;;;;;;;2.13;1.93;;;;;;;6.30;89.63;94675.78;5089513;28;20691;-80
2022/11/21 06:41:15;;;;;;;1.33;1.10;;;;;;;6.26;90.14;94662.56;5090688;28;20201;-80
2022/11/21 06:43:42;;;;;;;0.87;0.77;;;;;;;6.23;90.50;94673.13;5090239;28;20216;-80
2022/11/21 06:46:09;;;;;;;1.73;1.00;;;;;;;6.33;89.98;94671.13;5090620;28;20199;-80
2022/11/21 06:48:37;;;;;;;0.97;0.70;;;;;;;6.38;89.70;94668.81;5090657;28;20222;-80
2022/11/21 06:51:05;;;;;;;0.97;0.80;;;;;;;6.41;89.49;94678.72;5089784;28;20192;-80
2022/11/21 06:53:31;;;;;;;4.10;1.00;;;;;;;6.46;89.37;94680.75;5090569;28;20280;-80
2022/11/21 06:56:00;;;;;;;3.60;0.90;;;;;;;6.35;89.12;94693.97;5088608;28;20196;-79
2022/11/21 06:58:27;;;;;;;1.10;0.90;;;;;;;6.38;88.48;94696.16;5082905;28;20564;-82
2022/11/21 07:00:53;;;;;;;0.80;0.80;;;;;;;6.28;88.75;94698.16;5072123;28;20196;-80
2022/11/21 07:03:20;;;;;;;2.03;0.90;;;;;;;6.23;88.51;94696.91;5073695;28;20623;-79
2022/11/21 07:05:46;;;;;;;0.70;0.70;;;;;;;6.33;88.22;94698.44;5078863;28;20621;-79
2022/11/21 07:08:13;;;;;;;2.40;1.63;;;;;;;6.29;87.74;94698.00;5071776;28;20217;-80
2022/11/21 07:10:39;;;;;;;5.50;4.30;;;;;;;6.34;87.49;94702.59;5070195;28;20196;-79
2022/11/21 07:13:23;;;;;;;1.07;0.80;;;;;;;6.27;87.29;94711.91;5069624;28;20201;-78
2022/11/21 07:15:51;;;;;;;0.70;0.70;;;;;;;6.33;87.20;94709.47;5075719;28;20196;-79
2022/11/21 07:18:18;;;;;;;0.80;0.80;;;;;;;6.28;86.28;94709.19;5080336;28;20225;-80
2022/11/21 07:20:45;;;;;;;0.70;0.70;;;;;;;6.36;86.22;94715.97;5069852;28;20220;-79
2022/11/21 07:23:12;;;;;;;1.77;0.90;;;;;;;6.34;86.10;94711.06;5086153;28;20185;-81
2022/11/21 07:25:39;;;;;;;1.17;0.80;;;;;;;6.28;85.17;94714.28;5089648;28;20208;-78
2022/11/21 07:28:08;;;;;;;1.53;0.70;;;;;;;6.32;84.42;94718.09;5089710;28;20294;-79
2022/11/21 07:30:35;;;;;;;1.33;0.80;;;;;;;6.31;83.97;94726.75;5087769;28;20283;-78
2022/11/21 07:33:04;;;;;;;0.60;0.60;;;;;;;6.41;84.36;94724.72;5088869;28;20559;-79
2022/11/21 07:35:32;;;;;;;0.97;0.70;;;;;;;6.33;83.84;94724.81;5089594;28;20553;-81
2022/11/21 07:37:58;;;;;;;0.80;0.70;;;;;;;6.32;83.68;94725.78;5088830;28;20569;-81
2022/11/21 07:40:25;;;;;;;2.23;0.60;;;;;;;6.37;83.58;94733.69;5081630;28;20203;-79
2022/11/21 07:42:52;;;;;;;0.60;0.60;;;;;;;6.36;83.29;94728.75;5089495;28;20196;-80
2022/11/21 07:45:20;;;;;;;1.27;0.80;;;;;;;6.39;83.22;94736.88;5082640;28;20228;-80
2022/11/21 07:47:46;;;;;;;0.70;0.70;;;;;;;6.34;82.94;94730.72;5088826;28;20219;-80
2022/11/21 07:50:13;;;;;;;0.50;0.50;;;;;;;6.30;83.29;94742.25;5086499;28;20196;-80
2022/11/21 07:52:40;;;;;;;0.80;0.70;;;;;;;6.40;83.28;94737.69;5082243;28;20188;-80
2022/11/21 07:55:07;;;;;;;1.40;0.87;;;;;;;6.50;82.53;94733.94;5084425;28;20215;-80
2022/11/21 07:57:34;;;;;;;0.67;0.67;;;;;;;6.59;81.98;94735.44;5077938;28;20227;-79
2022/11/21 08:00:00;;;;;;;4.63;0.90;;;;;;;6.74;81.44;94737.22;5078638;28;20200;-80
2022/11/21 08:02:28;;;;;;;1.57;0.80;;;;;;;6.69;81.27;94737.78;5088701;28;20189;-79
2022/11/21 08:04:55;;;;;;;1.10;0.80;;;;;;;6.53;81.76;94741.28;5070796;28;20212;-80
2022/11/21 08:07:23;;;;;;;0.70;0.67;;;;;;;6.55;81.58;94751.28;5068785;28;20220;-80
2022/11/21 08:09:49;;;;;;;1.23;0.90;;;;;;;6.58;81.54;94743.28;5068794;28;20239;-79
2022/11/21 08:12:16;;;;;;;1.10;0.90;;;;;;;6.54;81.52;94758.16;5068847;28;20200;-81
2022/11/21 08:14:43;;;;;;;0.70;0.70;;;;;;;6.46;81.83;94760.81;5085100;28;20726;-82
2022/11/21 08:17:09;;;;;;;1.03;0.93;;;;;;;6.48;82.62;94746.09;5085116;28;20196;-81
2022/11/21 08:19:37;;;;;;;1.70;1.00;;;;;;;6.62;82.29;94753.97;5087764;28;20192;-80
2022/11/21 08:22:04;;;;;;;5.50;1.00;;;;;;;6.76;81.65;94754.00;5086870;28;20188;-80
2022/11/21 08:24:30;;;;;;;1.63;0.97;;;;;;;6.87;80.74;94756.16;5079272;28;20230;-82
2022/11/21 08:26:58;;;;;;;4.17;1.10;;;;;;;7.12;79.70;94754.13;5080429;28;20208;-81
2022/11/21 08:29:25;;;;;;;1.83;1.00;;;;;;;7.23;78.81;94747.81;5092157;28;20187;-81
2022/11/21 08:31:52;;;;;;;1.20;1.00;;;;;;;7.23;78.63;94748.59;5092216;28;20200;-82
2022/11/21 08:34:18;;;;;;;7.07;4.80;;;;;;;7.04;78.80;94750.88;5092332;28;20271;-81
2022/11/21 08:36:46;;;;;;;1.93;1.70;;;;;;;6.93;79.57;94752.09;5092866;28;20207;-82
2022/11/21 08:39:12;;;;;;;1.43;1.30;;;;;;;6.90;79.59;94750.69;5091976;28;20215;-80
2022/11/21 08:44:30;;;;;;;1.20;1.10;;;;;;;6.79;79.54;94745.97;5091935;28;20808;-81
2022/11/21 08:46:59;;;;;;;1.90;1.00;;;;;;;6.68;80.01;94745.63;5092329;28;20196;-82
2022/11/21 08:49:26;;;;;;;1.37;1.20;;;;;;;6.75;80.34;94746.50;5081894;28;20195;-82
2022/11/21 08:51:54;;;;;;;1.73;1.10;;;;;;;6.78;79.39;94756.38;5085455;28;20203;-81
2022/11/21 08:54:22;;;;;;;1.47;1.10;;;;;;;6.88;78.84;94752.63;5083523;28;20195;-81
2022/11/21 08:56:49;;;;;;;2.70;1.17;;;;;;;6.97;78.47;94742.31;5091291;28;20221;-82
2022/11/21 08:59:16;;;;;;;1.87;1.30;;;;;;;6.98;78.36;94747.25;5091160;28;20683;-81
2022/11/21 09:01:43;;;;;;;2.20;0.90;;;;;;;7.04;78.15;94746.56;5092485;28;20688;-81
2022/11/21 09:04:10;;;;;;;1.37;1.07;;;;;;;7.03;77.95;94744.16;5089089;28;20220;-83
2022/11/21 09:06:36;;;;;;;1.90;1.13;;;;;;;7.10;78.13;94753.53;5092146;28;20196;-80
2022/11/21 09:09:06;;;;;;;1.37;1.20;;;;;;;7.22;77.23;94749.56;5092671;28;20220;-81
2022/11/21 09:11:33;;;;;;;1.20;1.10;;;;;;;7.26;77.09;94750.81;5090179;28;20204;-82
2022/11/21 09:19:28;;;;;;;2.93;1.70;;;;;;;7.32;76.58;94744.16;5088808;28;20190;-82
2022/11/21 09:21:54;;;;;;;1.93;1.10;;;;;;;7.55;76.55;94746.63;5081355;28;20193;-81
2022/11/21 09:24:22;;;;;;;1.53;1.30;;;;;;;7.84;75.42;94738.91;5091705;28;20211;-81
2022/11/21 09:26:49;;;;;;;1.37;1.27;;;;;;;7.90;74.44;94745.88;5091199;28;20203;-81
2022/11/21 09:29:15;;;;;;;3.20;1.10;;;;;;;8.20;73.44;94750.91;5091292;28;20587;-81
2022/11/21 09:31:42;;;;;;;1.63;1.10;;;;;;;8.36;72.74;94737.09;5092078;28;20192;-82
2022/11/21 09:34:09;;;;;;;1.20;0.90;;;;;;;8.57;71.76;94745.59;5090984;28;20197;-82
2022/11/21 09:36:35;;;;;;;1.03;0.93;;;;;;;8.65;71.21;94739.53;5091081;28;20203;-81
2022/11/21 09:39:02;;;;;;;3.00;1.37;;;;;;;8.83;71.28;94739.88;5089695;28;20219;-82
2022/11/21 09:41:53;;;;;;;1.50;0.97;;;;;;;9.05;70.67;94730.31;5091609;28;20200;-82
2022/11/21 09:44:38;;;;;;;2.47;1.20;;;;;;;9.20;68.70;94723.34;5086272;28;20204;-82
2022/11/21 09:47:18;;;;;;;1.67;1.07;;;;;;;9.39;68.08;94731.34;5087731;28;20184;-81
2022/11/21 09:49:48;;;;;;;3.50;1.23;;;;;;;9.49;67.93;94724.84;5083635;28;20192;-79
2022/11/21 09:52:20;;;;;;;3.70;1.47;;;;;;;9.58;67.61;94721.16;5091325;28;20181;-81
2022/11/21 09:54:49;;;;;;;2.00;1.20;;;;;;;9.33;67.18;94722.59;5089502;28;20215;-81
2022/11/21 09:57:22;;;;;;;2.57;1.13;;;;;;;9.16;67.75;94722.13;5090311;28;20687;-81
2022/11/21 09:59:50;;;;;;;6.97;5.43;;;;;;;9.05;68.21;94719.25;5090660;28;20214;-82
2022/11/21 10:02:18;;;;;;;2.20;1.23;;;;;;;8.94;68.55;94721.38;5090844;28;20200;-81
2022/11/21 10:04:46;;;;;;;2.63;1.03;;;;;;;9.23;68.44;94715.25;5090157;28;20220;-83
2022/11/21 10:07:17;;;;;;;1.60;1.40;;;;;;;9.44;67.23;94714.34;5084445;28;20197;-81
2022/11/21 10:10:02;;;;;;;1.83;1.20;;;;;;;9.51;67.35;94710.03;5086988;28;20216;-81
2022/11/21 10:12:37;;;;;;;2.23;1.10;;;;;;;9.46;67.43;94707.25;5084554;28;20191;-81
2022/11/21 10:15:17;;;;;;;1.70;1.20;;;;;;;9.46;66.54;94701.31;5086659;28;20180;-82
2022/11/21 10:17:57;;;;;;;3.00;1.73;;;;;;;9.40;66.87;94702.09;5082387;28;20222;-82
2022/11/21 10:20:38;;;;;;;6.23;3.57;;;;;;;9.18;66.04;94696.25;5090389;28;20189;-81
2022/11/21 10:23:29;;;;;;;3.77;1.90;;;;;;;8.86;66.16;94693.28;5089975;28;20547;-81
2022/11/21 10:25:57;;;;;;;6.47;2.97;;;;;;;8.84;67.10;94690.13;5088400;28;20212;-81
2022/11/21 10:28:37;;;;;;;5.77;2.23;;;;;;;8.84;67.42;94686.78;5089114;28;20219;-81
2022/11/21 10:31:04;;;;;;;4.17;1.60;;;;;;;8.76;67.86;94680.00;5085852;28;20184;-81
2022/11/21 10:33:32;;;;;;;1.80;1.00;;;;;;;8.74;68.18;94676.81;5090102;28;20197;-82
2022/11/21 10:36:05;;;;;;;1.20;1.00;;;;;;;8.92;67.93;94666.06;5089822;28;20287;-81
2022/11/21 10:38:38;;;;;;;3.90;1.23;;;;;;;9.29;66.97;94670.00;5083531;28;20216;-82
2022/11/21 10:41:12;;;;;;;2.03;0.90;;;;;;;9.46;64.94;94655.06;5088484;28;20188;-83
2022/11/21 10:46:31;;;;;;;1.23;0.80;;;;;;;9.53;63.61;94651.53;5090122;28;20200;-81
2022/11/21 10:49:00;;;;;;;2.20;1.30;;;;;;;9.63;63.91;94649.38;5089460;28;20219;-82
2022/11/21 10:51:38;;;;;;;2.53;1.00;;;;;;;9.73;63.94;94651.59;5089300;28;20703;-82
2022/11/21 10:56:52;;;;;;;2.50;0.97;;;;;;;9.58;62.79;94653.53;5089618;28;20203;-82
2022/11/21 10:59:27;;;;;;;1.07;0.97;;;;;;;9.20;60.03;94650.63;5086778;28;20216;-82
2022/11/21 11:01:57;;;;;;;4.10;1.00;;;;;;;9.03;60.33;94652.72;5089730;28;20188;-81
2022/11/21 11:04:26;;;;;;;1.40;0.87;;;;;;;8.90;60.29;94650.06;5076190;28;20304;-83
2022/11/21 11:06:52;;;;;;;4.10;3.30;;;;;;;8.89;60.15;94644.13;5086232;28;20200;-82
2022/11/21 11:09:28;;;;;;;4.37;1.40;;;;;;;8.75;60.18;94639.91;5091547;28;20226;-81
2022/11/21 11:15:17;;;;;;;2.03;1.07;;;;;;;8.54;60.09;94634.84;5079732;28;20197;-82
2022/11/21 11:17:50;;;;;;;3.83;1.10;;;;;;;8.57;60.60;94626.78;5076913;28;20228;-83
2022/11/21 11:20:34;;;;;;;1.87;1.00;;;;;;;8.59;60.94;94614.56;5087272;28;20199;-81
2022/11/21 11:23:16;;;;;;;2.20;1.10;;;;;;;8.61;61.07;94607.47;5088686;28;20195;-82
2022/11/21 11:25:47;;;;;;;1.33;0.90;;;;;;;8.68;61.09;94613.41;5081513;28;20557;-82
2022/11/21 11:28:13;;;;;;;1.67;0.90;;;;;;;8.72;60.82;94606.13;5089244;28;20302;-82
2022/11/21 11:30:42;;;;;;;2.20;1.20;;;;;;;8.71;60.59;94607.13;5083601;28;20192;-82
2022/11/21 11:33:30;;;;;;;2.53;1.17;;;;;;;8.73;61.65;94597.47;5088104;28;20204;-81
2022/11/21 11:36:05;;;;;;;2.67;1.43;;;;;;;8.70;61.75;94600.41;5079202;28;20181;-82
2022/11/21 11:38:33;;;;;;;3.03;1.07;;;;;;;8.73;62.38;94592.31;5081994;28;20589;-81
2022/11/21 11:41:04;;;;;;;2.50;1.60;;;;;;;8.68;61.57;94592.88;5088118;28;20200;-81
2022/11/21 11:50:09;;;;;;;1.80;1.60;;;;;;;8.58;61.51;94582.19;5087227;28;20222;-82
2022/11/21 11:52:28;;;;;;;1.17;1.00;;;;;;;8.55;61.81;94580.78;5088786;28;20202;-82
2022/11/21 11:55:02;;;;;;;2.73;1.90;;;;;;;8.57;65.05;94578.81;5080481;28;20196;-82
2022/11/21 11:57:31;;;;;;;4.00;1.80;;;;;;;8.53;62.23;94576.81;5086888;28;20220;-82
2022/11/21 12:00:07;;;;;;;5.10;3.13;;;;;;;8.58;61.75;94574.50;5089157;28;20273;-81
2022/11/21 12:02:47;;;;;;;4.37;3.70;;;;;;;8.71;62.02;94573.75;5089649;28;20584;-82
2022/11/21 12:05:21;;;;;;;2.80;1.97;;;;;;;8.69;61.41;94568.81;5081518;28;20222;-82
2022/11/21 12:07:54;;;;;;;2.20;1.20;;;;;;;8.70;61.08;94570.41;5077691;28;20208;-82
2022/11/21 12:10:26;;;;;;;1.90;1.00;;;;;;;8.74;61.22;94566.47;5087532;28;20255;-82
2022/11/21 12:12:59;;;;;;;4.00;1.20;;;;;;;8.83;61.44;94559.44;5085611;28;20290;-82
2022/11/21 12:15:49;;;;;;;1.67;0.90;;;;;;;8.78;61.28;94557.41;5072713;28;20196;-81
2022/11/21 12:18:28;;;;;;;4.27;1.27;;;;;;;8.79;61.22;94547.94;5088104;28;20216;-82